Time;durP1;ratioP1;P1;durP2;ratioP2;P2;SDS_P1;SDS_P2;PMS_P1;PMS_P2;Temp;Humidity;BMP_temperature;BMP_pressure;BME280_temperature;BME280_humidity;BME280_pressure;Samples;Min_cycle;Max_cycle;Signal;HPM_P1;HPM_P2
2023/11/14 00:00:52;;;;;;;15.40;3.25;;;9.60;99.90;;;;;;6223010;23;20107;-83
2023/11/14 00:03:40;;;;;;;16.30;2.67;;;9.60;99.90;;;;;;6225204;23;20330;-83
2023/11/14 00:06:27;;;;;;;14.10;2.80;;;9.60;99.90;;;;;;6222626;23;20024;-83
2023/11/14 00:09:17;;;;;;;10.45;2.65;;;9.60;99.90;;;;;;6224232;23;20020;-82
2023/11/14 00:12:07;;;;;;;15.93;3.25;;;9.60;99.90;;;;;;6245330;23;20091;-83
2023/11/14 00:14:56;;;;;;;17.40;3.08;;;9.60;99.90;;;;;;6224301;23;20031;-80
2023/11/14 00:17:44;;;;;;;18.80;3.47;;;9.60;99.90;;;;;;6220500;23;20020;-84
2023/11/14 00:20:31;;;;;;;16.00;3.40;;;9.60;99.90;;;;;;6220863;23;20049;-82
2023/11/14 00:23:21;;;;;;;15.55;3.47;;;9.60;99.90;;;;;;6244060;23;20020;-83
2023/11/14 00:26:10;;;;;;;19.17;2.88;;;9.60;99.90;;;;;;6242362;23;20304;-84
2023/11/14 00:28:58;;;;;;;19.13;4.07;;;9.50;99.90;;;;;;6243887;23;20024;-83
2023/11/14 00:31:45;;;;;;;11.73;3.17;;;9.50;99.90;;;;;;6244539;23;20031;-84
2023/11/14 00:34:33;;;;;;;19.27;3.38;;;9.50;99.90;;;;;;6240987;23;20113;-83
2023/11/14 00:37:21;;;;;;;17.25;3.17;;;9.40;99.90;;;;;;6221616;23;20020;-81
2023/11/14 00:40:09;;;;;;;18.60;3.08;;;9.40;99.90;;;;;;6243572;23;20024;-83
2023/11/14 00:42:56;;;;;;;16.45;2.95;;;9.40;99.90;;;;;;6242117;23;20059;-83
2023/11/14 00:45:46;;;;;;;17.15;3.97;;;9.50;99.90;;;;;;6243938;23;20027;-83
2023/11/14 00:48:34;;;;;;;24.98;4.05;;;9.50;99.90;;;;;;6223168;23;20028;-81
2023/11/14 00:51:21;;;;;;;22.48;4.43;;;9.60;99.90;;;;;;6247378;23;20429;-84
2023/11/14 00:54:09;;;;;;;20.38;4.35;;;9.60;99.90;;;;;;6246837;23;20163;-83
2023/11/14 00:56:57;;;;;;;15.55;3.47;;;9.60;99.90;;;;;;6224749;23;20107;-84
2023/11/14 00:59:47;;;;;;;26.67;4.68;;;9.60;99.90;;;;;;6243590;23;20031;-84
2023/11/14 01:02:34;;;;;;;24.70;4.50;;;9.60;99.90;;;;;;6243760;23;20146;-83
2023/11/14 01:05:23;;;;;;;20.42;4.22;;;9.60;99.90;;;;;;6244535;23;20028;-84
2023/11/14 01:08:10;;;;;;;22.58;5.68;;;9.60;99.90;;;;;;6246012;23;20092;-83
2023/11/14 01:10:57;;;;;;;16.80;3.88;;;9.60;99.90;;;;;;6243516;23;20417;-83
2023/11/14 01:13:45;;;;;;;19.58;3.97;;;9.70;99.90;;;;;;6244923;23;20131;-84
2023/11/14 01:16:32;;;;;;;12.27;3.15;;;9.60;99.90;;;;;;6246110;23;20142;-83
2023/11/14 01:19:20;;;;;;;18.75;3.40;;;9.60;99.90;;;;;;6248854;23;20100;-83
2023/11/14 01:22:09;;;;;;;22.35;3.17;;;9.60;99.90;;;;;;6249254;23;20030;-81
2023/11/14 01:25:04;;;;;;;17.50;2.88;;;9.60;99.90;;;;;;6246987;23;20039;-79
2023/11/14 01:27:54;;;;;;;22.48;3.53;;;9.60;99.90;;;;;;6245603;23;20032;-83
2023/11/14 01:30:41;;;;;;;18.60;2.85;;;9.60;99.90;;;;;;6243863;23;20043;-84
2023/11/14 01:33:30;;;;;;;16.50;3.25;;;9.60;99.90;;;;;;6226867;23;20023;-82
2023/11/14 01:36:17;;;;;;;17.67;3.75;;;9.60;99.90;;;;;;6247812;23;20028;-79
2023/11/14 01:39:06;;;;;;;18.83;3.63;;;9.60;99.90;;;;;;6249192;23;20028;-82
2023/11/14 01:41:54;;;;;;;19.30;3.72;;;9.60;99.90;;;;;;6228344;23;20024;-83
2023/11/14 01:44:42;;;;;;;18.67;4.65;;;9.60;99.90;;;;;;6224171;23;20039;-83
2023/11/14 01:47:30;;;;;;;21.92;5.70;;;9.50;99.90;;;;;;6245685;23;20024;-84
2023/11/14 01:50:20;;;;;;;26.25;6.10;;;9.50;99.90;;;;;;6223184;23;20700;-83
2023/11/14 01:53:08;;;;;;;28.80;6.30;;;9.50;99.90;;;;;;6224061;23;20127;-83
2023/11/14 01:55:58;;;;;;;22.85;4.22;;;9.40;99.90;;;;;;6245490;23;20027;-82
2023/11/14 01:58:48;;;;;;;15.52;3.25;;;9.40;99.90;;;;;;6224423;23;20023;-83
2023/11/14 02:01:36;;;;;;;22.42;3.63;;;9.40;99.90;;;;;;6243944;23;20028;-83
2023/11/14 02:04:26;;;;;;;21.15;3.50;;;9.30;99.90;;;;;;6225732;23;20036;-84
2023/11/14 02:07:14;;;;;;;18.00;4.13;;;9.20;99.90;;;;;;6246121;23;20099;-84
2023/11/14 02:10:04;;;;;;;14.38;3.20;;;9.20;99.90;;;;;;6203757;23;20066;-84
2023/11/14 02:12:51;;;;;;;21.02;3.67;;;9.20;99.90;;;;;;6244384;23;20126;-83
2023/11/14 02:15:39;;;;;;;23.48;4.43;;;9.10;99.90;;;;;;6243695;23;20395;-82
2023/11/14 02:18:28;;;;;;;23.70;4.40;;;9.10;99.90;;;;;;6247920;23;20410;-83
2023/11/14 02:21:16;;;;;;;24.77;4.22;;;9.00;99.90;;;;;;6248403;23;20020;-83
2023/11/14 02:24:06;;;;;;;23.27;4.00;;;9.00;99.90;;;;;;6243432;23;20039;-83
2023/11/14 02:26:53;;;;;;;21.83;4.47;;;8.90;99.90;;;;;;6242566;23;20406;-83
2023/11/14 02:29:41;;;;;;;11.18;3.28;;;9.00;99.90;;;;;;6242619;23;20426;-85
2023/11/14 02:32:32;;;;;;;25.67;4.05;;;9.00;99.90;;;;;;6243225;23;20066;-83
2023/11/14 02:35:19;;;;;;;21.70;4.55;;;9.00;99.90;;;;;;6222555;23;20028;-83
2023/11/14 02:38:07;;;;;;;19.77;4.20;;;9.00;99.90;;;;;;6242668;23;20024;-84
2023/11/14 02:40:56;;;;;;;18.08;4.45;;;9.00;99.90;;;;;;6242160;23;20266;-83
2023/11/14 02:43:43;;;;;;;20.10;4.57;;;9.00;99.90;;;;;;6243338;23;20103;-83
2023/11/14 02:46:32;;;;;;;16.67;3.70;;;9.00;99.90;;;;;;6243682;23;20295;-84
2023/11/14 02:49:20;;;;;;;14.50;3.35;;;8.90;99.90;;;;;;6244896;23;20546;-82
2023/11/14 02:52:09;;;;;;;12.43;3.40;;;8.80;99.90;;;;;;6243517;23;20028;-80
2023/11/14 02:54:57;;;;;;;16.20;3.83;;;8.80;99.90;;;;;;6246277;23;20051;-82
2023/11/14 02:57:46;;;;;;;15.23;3.85;;;8.70;99.90;;;;;;6245756;23;20016;-84
2023/11/14 03:00:33;;;;;;;20.20;4.03;;;8.50;99.90;;;;;;6242989;23;20103;-84
2023/11/14 03:03:21;;;;;;;22.77;4.25;;;8.50;99.90;;;;;;6242935;23;20099;-79
2023/11/14 03:06:11;;;;;;;17.70;3.63;;;8.50;99.90;;;;;;6222001;23;20024;-83
2023/11/14 03:08:58;;;;;;;22.50;4.93;;;8.50;99.90;;;;;;6243556;23;20031;-84
2023/11/14 03:11:48;;;;;;;23.33;5.20;;;8.50;99.90;;;;;;6244044;23;20039;-84
2023/11/14 03:14:38;;;;;;;19.60;4.03;;;8.50;99.90;;;;;;6244680;23;20043;-83
2023/11/14 03:17:25;;;;;;;15.05;4.40;;;8.40;99.90;;;;;;6246409;23;20072;-85
2023/11/14 03:20:13;;;;;;;20.48;4.40;;;8.40;99.90;;;;;;6245184;23;20060;-84
2023/11/14 03:23:14;;;;;;;21.10;4.07;;;8.40;99.90;;;;;;6245044;23;20020;-83
2023/11/14 03:26:04;;;;;;;18.70;4.60;;;8.40;99.90;;;;;;6242105;23;20425;-84
2023/11/14 03:28:51;;;;;;;22.67;4.32;;;8.40;99.90;;;;;;6222108;23;20050;-84
2023/11/14 03:31:38;;;;;;;22.40;5.05;;;8.50;99.90;;;;;;6242294;23;20024;-84
2023/11/14 03:34:26;;;;;;;25.38;4.80;;;8.50;99.90;;;;;;6245420;22;20426;-80
2023/11/14 03:37:14;;;;;;;24.98;4.90;;;8.50;99.90;;;;;;6245637;23;20030;-82
2023/11/14 03:40:03;;;;;;;29.58;9.93;;;8.60;99.90;;;;;;6248142;23;20020;-84
2023/11/14 03:42:52;;;;;;;21.98;6.82;;;8.60;99.90;;;;;;6252270;23;20063;-82
2023/11/14 03:45:40;;;;;;;21.60;5.95;;;8.60;99.90;;;;;;6230004;23;20421;-84
2023/11/14 03:48:29;;;;;;;18.00;4.03;;;8.70;99.90;;;;;;6234058;23;20039;-79
2023/11/14 03:51:19;;;;;;;18.25;3.72;;;8.70;99.90;;;;;;6260754;23;20028;-83
2023/11/14 03:54:06;;;;;;;21.10;4.57;;;8.70;99.90;;;;;;6260135;23;20016;-83
2023/11/14 03:56:53;;;;;;;18.77;4.05;;;8.80;99.90;;;;;;6260290;23;20433;-83
2023/11/14 03:59:41;;;;;;;14.95;4.18;;;8.80;99.90;;;;;;6258145;23;20028;-83
2023/11/14 04:02:29;;;;;;;20.45;4.22;;;8.80;99.90;;;;;;6256748;23;20434;-83
2023/11/14 04:05:19;;;;;;;9.75;3.35;;;8.80;99.90;;;;;;6245636;23;20024;-83
2023/11/14 04:08:06;;;;;;;12.40;3.72;;;8.70;99.90;;;;;;6244633;23;20028;-81
2023/11/14 04:10:54;;;;;;;16.58;3.53;;;8.80;99.90;;;;;;6243230;23;20024;-83
2023/11/14 04:13:41;;;;;;;21.40;4.32;;;8.80;99.90;;;;;;6241813;23;20020;-83
2023/11/14 04:16:28;;;;;;;18.08;4.50;;;8.80;99.90;;;;;;6244713;23;20394;-83
2023/11/14 04:19:18;;;;;;;12.85;3.85;;;8.80;99.90;;;;;;6244637;23;20024;-84
2023/11/14 04:22:06;;;;;;;15.20;3.80;;;8.80;99.90;;;;;;6244469;23;20418;-83
2023/11/14 04:24:54;;;;;;;12.85;4.05;;;8.70;99.90;;;;;;6247863;23;20056;-83
2023/11/14 04:27:41;;;;;;;21.17;4.72;;;8.60;99.90;;;;;;6243530;23;20024;-83
2023/11/14 04:30:28;;;;;;;14.45;4.03;;;8.60;99.90;;;;;;6246844;23;20035;-80
2023/11/14 04:33:16;;;;;;;17.73;4.78;;;8.50;99.90;;;;;;6245285;23;20091;-84
2023/11/14 04:36:03;;;;;;;13.10;4.15;;;8.40;99.90;;;;;;6245950;23;20025;-84
2023/11/14 04:38:53;;;;;;;14.15;4.65;;;8.50;99.90;;;;;;6245053;23;20024;-83
2023/11/14 04:41:42;;;;;;;19.05;5.40;;;8.50;99.90;;;;;;6244229;23;20047;-84
2023/11/14 04:44:30;;;;;;;17.45;4.72;;;8.40;99.90;;;;;;6224875;23;20031;-83
2023/11/14 04:47:17;;;;;;;15.50;4.47;;;8.50;99.90;;;;;;6223490;23;20031;-84
2023/11/14 04:50:10;;;;;;;10.48;4.13;;;8.30;99.90;;;;;;6243680;23;20030;-83
2023/11/14 04:52:58;;;;;;;18.92;4.82;;;8.30;99.90;;;;;;6244091;23;20434;-83
2023/11/14 04:55:46;;;;;;;14.73;4.38;;;8.20;99.90;;;;;;6243519;23;20028;-81
2023/11/14 04:58:33;;;;;;;16.25;4.30;;;8.20;99.90;;;;;;6246009;23;20084;-83
2023/11/14 05:01:23;;;;;;;12.48;4.47;;;8.10;99.90;;;;;;6243439;23;20028;-84
2023/11/14 05:04:13;;;;;;;13.95;4.22;;;8.10;99.90;;;;;;6243238;23;20136;-83
2023/11/14 05:07:02;;;;;;;16.52;4.03;;;8.10;99.90;;;;;;6245718;23;20052;-83
2023/11/14 05:09:52;;;;;;;13.88;4.07;;;8.10;99.90;;;;;;6250106;22;20331;-79
2023/11/14 05:12:39;;;;;;;15.50;4.63;;;8.20;99.90;;;;;;6226504;23;20024;-83
2023/11/14 05:15:29;;;;;;;13.75;4.00;;;8.20;99.90;;;;;;6247351;23;20031;-83
2023/11/14 05:18:16;;;;;;;13.10;4.03;;;8.20;99.90;;;;;;6242879;23;20059;-80
2023/11/14 05:21:04;;;;;;;12.88;3.83;;;8.20;99.90;;;;;;6246966;23;20020;-83
2023/11/14 05:23:51;;;;;;;13.32;4.45;;;8.10;99.90;;;;;;6246122;23;20163;-83
2023/11/14 05:26:40;;;;;;;13.80;4.30;;;8.00;99.90;;;;;;6243325;23;20019;-81
2023/11/14 05:29:28;;;;;;;13.18;4.47;;;7.90;99.90;;;;;;6224319;23;20086;-83
2023/11/14 05:32:15;;;;;;;12.15;4.35;;;7.90;99.90;;;;;;6245473;23;20078;-83
2023/11/14 05:35:03;;;;;;;18.17;7.95;;;7.80;99.90;;;;;;6223443;23;20318;-81
2023/11/14 05:37:51;;;;;;;19.08;5.38;;;7.80;99.90;;;;;;6244548;23;20028;-82
2023/11/14 05:40:38;;;;;;;16.73;5.45;;;7.90;99.90;;;;;;6245090;23;20336;-83
2023/11/14 05:43:28;;;;;;;14.00;4.53;;;7.80;99.90;;;;;;6244861;23;20339;-81
2023/11/14 05:46:18;;;;;;;12.95;4.65;;;7.70;99.90;;;;;;6242459;23;20032;-79
2023/11/14 05:49:06;;;;;;;13.60;4.55;;;7.60;99.90;;;;;;6245537;23;20034;-81
2023/11/14 05:51:55;;;;;;;9.18;4.70;;;7.50;99.90;;;;;;6223448;23;20319;-82
2023/11/14 05:54:42;;;;;;;14.25;5.25;;;7.50;99.90;;;;;;6243888;23;20035;-82
2023/11/14 05:57:29;;;;;;;14.23;5.28;;;7.60;99.90;;;;;;6244124;23;20024;-79
2023/11/14 06:00:16;;;;;;;15.90;5.05;;;7.70;99.90;;;;;;6243643;23;20292;-81
2023/11/14 06:03:06;;;;;;;11.50;4.35;;;7.80;99.90;;;;;;6246046;23;20016;-81
2023/11/14 06:05:56;;;;;;;12.75;4.82;;;7.90;99.90;;;;;;6244132;23;20024;-80
2023/11/14 06:08:45;;;;;;;14.70;4.78;;;8.00;99.90;;;;;;6223396;23;20032;-81
2023/11/14 06:11:33;;;;;;;11.90;5.05;;;8.00;99.90;;;;;;6223407;23;20059;-81
2023/11/14 06:14:20;;;;;;;19.73;6.88;;;8.10;99.90;;;;;;6243644;23;20038;-79
2023/11/14 06:17:08;;;;;;;15.10;6.28;;;8.10;99.90;;;;;;6243901;23;20024;-81
2023/11/14 06:20:00;;;;;;;17.00;5.50;;;8.00;99.90;;;;;;6244568;23;20031;-81
2023/11/14 06:22:50;;;;;;;14.80;6.65;;;8.10;99.90;;;;;;6221604;23;20020;-81
2023/11/14 06:25:38;;;;;;;17.70;7.03;;;8.10;99.90;;;;;;6242753;23;20020;-81
2023/11/14 06:28:27;;;;;;;14.52;6.75;;;8.10;99.90;;;;;;6241041;23;20028;-80
2023/11/14 06:31:21;;;;;;;13.02;5.22;;;8.10;99.90;;;;;;6242403;23;20024;-79
2023/11/14 06:34:11;;;;;;;14.13;5.32;;;8.20;99.90;;;;;;6242224;23;20034;-80
2023/11/14 06:36:58;;;;;;;9.77;4.30;;;8.20;99.90;;;;;;6242185;23;20032;-81
2023/11/14 06:50:33;;;;;;;9.20;3.35;;;8.20;99.90;;;;;;6240909;22;20024;-80
2023/11/14 06:53:37;;;;;;;9.63;3.00;;;8.20;99.90;;;;;;6224869;23;20260;-83
2023/11/14 06:56:27;;;;;;;10.60;3.13;;;8.30;99.90;;;;;;6242799;23;20035;-82
2023/11/14 06:59:14;;;;;;;9.45;4.25;;;8.40;99.90;;;;;;6222240;23;20117;-82
2023/11/14 07:02:05;;;;;;;12.05;4.25;;;8.30;99.90;;;;;;6219818;23;20035;-81
2023/11/14 07:04:54;;;;;;;11.23;3.78;;;8.40;99.90;;;;;;6219460;23;20028;-82
2023/11/14 07:07:44;;;;;;;9.80;2.25;;;8.40;99.90;;;;;;6221365;23;20445;-81
2023/11/14 07:10:32;;;;;;;6.80;2.10;;;8.50;99.90;;;;;;6221620;23;20056;-82
2023/11/14 07:13:20;;;;;;;7.15;1.92;;;8.50;99.90;;;;;;6242617;23;20023;-81
2023/11/14 07:16:10;;;;;;;6.93;2.28;;;8.50;99.90;;;;;;6241924;23;20119;-81
2023/11/14 07:18:57;;;;;;;6.43;2.22;;;8.50;99.90;;;;;;6242208;23;20085;-80
2023/11/14 07:21:46;;;;;;;7.43;2.58;;;8.50;99.90;;;;;;6222015;23;20039;-81
2023/11/14 07:24:34;;;;;;;8.20;2.13;;;8.40;99.90;;;;;;6224448;23;20059;-80
2023/11/14 07:27:24;;;;;;;5.05;2.10;;;8.40;99.90;;;;;;6240584;23;20091;-82
2023/11/14 07:30:14;;;;;;;8.25;2.47;;;8.40;99.90;;;;;;6225405;23;20035;-79
2023/11/14 07:33:01;;;;;;;5.35;2.08;;;8.40;99.90;;;;;;6224224;23;20030;-83
2023/11/14 07:35:54;;;;;;;5.97;2.35;;;8.50;99.90;;;;;;6244231;23;20028;-81
2023/11/14 07:38:43;;;;;;;6.78;2.25;;;8.60;99.90;;;;;;6246859;23;20024;-81
2023/11/14 07:41:37;;;;;;;8.15;2.08;;;8.70;99.90;;;;;;6243897;23;20031;-81
2023/11/14 07:44:29;;;;;;;8.73;2.33;;;8.80;99.90;;;;;;6243113;23;20016;-82
2023/11/14 07:47:20;;;;;;;13.75;2.50;;;8.80;99.90;;;;;;6219290;23;20020;-80
2023/11/14 07:50:13;;;;;;;5.18;1.88;;;8.80;99.90;;;;;;6220083;23;20227;-80
2023/11/14 07:53:04;;;;;;;9.25;1.92;;;8.80;99.90;;;;;;6240778;23;20031;-81
2023/11/14 07:55:53;;;;;;;5.75;2.28;;;8.90;99.90;;;;;;6219416;23;20134;-81
2023/11/14 07:58:43;;;;;;;10.30;1.98;;;8.90;99.90;;;;;;6243228;23;20413;-81
2023/11/14 08:01:32;;;;;;;7.00;2.10;;;8.90;99.90;;;;;;6220222;23;20020;-80
2023/11/14 08:04:22;;;;;;;8.98;2.00;;;8.90;99.90;;;;;;6221394;23;20024;-81
2023/11/14 08:07:10;;;;;;;2.60;1.50;;;9.00;99.90;;;;;;6223032;23;20020;-81
2023/11/14 08:18:51;;;;;;;4.18;1.52;;;9.20;99.90;;;;;;6260565;23;20031;-82
2023/11/14 08:22:18;;;;;;;6.20;1.50;;;9.30;99.90;;;;;;6252813;23;20055;-83
2023/11/14 08:26:20;;;;;;;;;;;;;;;;;;;;;
2023/11/14 08:30:12;;;;;;;5.00;1.60;;;9.30;99.90;;;;;;6124298;23;20029;-83
2023/11/14 08:33:37;;;;;;;4.53;1.20;;;9.40;99.90;;;;;;6018781;23;20430;-82
2023/11/14 08:37:03;;;;;;;9.10;1.80;;;9.30;99.90;;;;;;5922310;24;20659;-79
2023/11/14 08:40:42;;;;;;;3.80;1.55;;;9.20;99.90;;;;;;5901783;24;20029;-82
2023/11/14 08:44:40;;;;;;;6.90;1.58;;;9.20;99.90;;;;;;6022352;23;20114;-84
2023/11/14 08:48:15;;;;;;;5.57;1.73;;;9.10;99.90;;;;;;5993793;23;20032;-82
2023/11/14 08:51:43;;;;;;;4.28;1.27;;;9.10;24.00;;;;;;5962415;24;20024;-85
2023/11/14 08:58:56;;;;;;;5.32;1.40;;;9.00;1.00;;;;;;5851446;24;20014;-82
2023/11/14 09:03:06;;;;;;;;;;;;;;;;;;;;;
2023/11/14 09:10:11;;;;;;;3.50;1.63;;;9.30;99.90;;;;;;5930684;23;20081;-83
2023/11/14 09:13:56;;;;;;;5.30;1.40;;;9.30;99.90;;;;;;5963398;23;20024;-80
2023/11/14 09:17:17;;;;;;;13.43;1.83;;;9.20;43.50;;;;;;6012917;23;20450;-81
2023/11/14 09:20:45;;;;;;;6.70;1.20;;;9.30;1.00;;;;;;6016547;23;20103;-82
2023/11/14 09:24:23;;;;;;;6.00;1.70;;;9.40;99.90;;;;;;6024892;23;20023;-82
2023/11/14 09:41:07;;;;;;;;;;;;;;;;;;;;;
2023/11/14 09:45:18;;;;;;;;;;;;;;;;;;;;;
2023/11/14 09:52:12;;;;;;;;;;;9.60;1.00;;;;;;5879521;24;20008;-84
2023/11/14 10:08:28;;;;;;;3.88;1.80;;;9.60;99.90;;;;;;5911000;24;20036;-81
2023/11/14 10:15:58;;;;;;;;;;;;;;;;;;;;;
2023/11/14 10:19:41;;;;;;;;;;;;;;;;;;;;;
2023/11/14 10:23:31;;;;;;;8.85;1.70;;;9.60;99.90;;;;;;5951165;23;20047;-85
2023/11/14 10:30:56;;;;;;;6.70;1.70;;;9.60;99.90;;;;;;5987600;23;20481;-81
2023/11/14 10:34:05;;;;;;;5.13;1.77;;;9.70;99.90;;;;;;6008683;23;20015;-81
2023/11/14 10:37:00;;;;;;;4.50;1.33;;;9.70;99.90;;;;;;6077409;23;20137;-82
2023/11/14 10:39:54;;;;;;;5.13;1.65;;;9.70;99.90;;;;;;6143499;23;20085;-83
2023/11/14 10:42:51;;;;;;;7.00;1.27;;;9.70;99.90;;;;;;6241854;23;20043;-82
2023/11/14 10:45:39;;;;;;;5.25;1.30;;;9.70;99.90;;;;;;6221878;23;20103;-81
2023/11/14 10:48:27;;;;;;;3.58;1.40;;;9.80;99.90;;;;;;6222307;23;20020;-82
2023/11/14 10:51:20;;;;;;;6.05;1.38;;;9.70;99.90;;;;;;6246658;23;20028;-80
2023/11/14 10:54:10;;;;;;;8.77;1.83;;;9.70;99.90;;;;;;6248037;23;20376;-83
2023/11/14 10:56:59;;;;;;;6.82;1.40;;;9.70;99.90;;;;;;6258143;23;20090;-82
2023/11/14 10:59:57;;;;;;;3.88;1.50;;;9.70;99.90;;;;;;6256654;23;20016;-79
2023/11/14 11:02:45;;;;;;;7.15;1.70;;;9.80;99.90;;;;;;6220618;23;20020;-80
2023/11/14 11:05:38;;;;;;;5.43;1.48;;;9.80;99.90;;;;;;6219986;23;20084;-81
2023/11/14 11:08:26;;;;;;;6.00;1.42;;;9.80;99.90;;;;;;6242186;23;20038;-82
2023/11/14 11:11:14;;;;;;;6.22;1.60;;;9.80;99.90;;;;;;6218478;23;20027;-81
2023/11/14 11:14:06;;;;;;;5.88;1.70;;;9.80;99.90;;;;;;6241002;23;20031;-81
2023/11/14 11:16:56;;;;;;;5.40;1.30;;;9.90;99.90;;;;;;6221817;23;20024;-81
2023/11/14 11:19:51;;;;;;;6.07;1.77;;;9.80;99.90;;;;;;6242790;23;20063;-81
2023/11/14 11:23:08;;;;;;;4.80;1.67;;;9.90;99.90;;;;;;6241998;23;20114;-81
2023/11/14 11:26:11;;;;;;;8.43;1.80;;;10.00;99.90;;;;;;6221420;23;20020;-80
2023/11/14 11:28:59;;;;;;;;;;;10.10;99.90;;;;;;6223310;23;20457;-81
2023/11/14 11:32:28;;;;;;;7.65;1.45;;;10.10;99.90;;;;;;6243440;23;19926;-81
2023/11/14 11:35:18;;;;;;;4.53;1.80;;;10.20;99.90;;;;;;6243246;23;20280;-82
2023/11/14 11:38:11;;;;;;;7.07;1.50;;;10.20;99.90;;;;;;6220996;23;20257;-82
2023/11/14 11:41:06;;;;;;;5.40;1.60;;;10.20;99.90;;;;;;6240538;23;20078;-81
2023/11/14 11:44:11;;;;;;;5.88;1.58;;;10.20;99.90;;;;;;6242359;23;20028;-81
2023/11/14 11:46:59;;;;;;;6.97;2.38;;;10.20;99.90;;;;;;6240365;23;20028;-83
2023/11/14 11:49:47;;;;;;;6.57;1.73;;;10.20;69.70;;;;;;6242061;23;20068;-82
2023/11/14 11:52:36;;;;;;;5.90;1.55;;;10.20;1.00;;;;;;6241311;23;20099;-81
2023/11/14 11:55:25;;;;;;;18.48;3.35;;;10.20;1.00;;;;;;6241382;23;20088;-81
2023/11/14 11:58:14;;;;;;;28.73;3.75;;;10.10;1.00;;;;;;6241208;23;20439;-81
2023/11/14 12:01:08;;;;;;;25.25;3.47;;;10.10;99.90;;;;;;6219718;23;20051;-81
2023/11/14 12:04:02;;;;;;;9.57;1.60;;;10.10;99.90;;;;;;6242497;23;20024;-79
2023/11/14 12:06:50;;;;;;;10.68;2.28;;;10.10;99.90;;;;;;6243944;23;20024;-81
2023/11/14 12:09:39;;;;;;;9.32;2.22;;;10.10;99.90;;;;;;6240942;23;20139;-80
2023/11/14 12:12:34;;;;;;;15.93;2.22;;;10.10;99.90;;;;;;6241786;23;20020;-79
2023/11/14 12:15:28;;;;;;;13.70;2.33;;;10.20;99.90;;;;;;6241701;23;20032;-81
2023/11/14 12:18:15;;;;;;;14.45;2.38;;;10.30;99.90;;;;;;6223202;23;20039;-80
2023/11/14 12:21:04;;;;;;;7.57;1.70;;;10.30;99.90;;;;;;6221754;23;20019;-81
2023/11/14 12:23:51;;;;;;;8.60;1.73;;;10.40;94.90;;;;;;6241210;23;20024;-80
2023/11/14 12:26:44;;;;;;;7.47;1.92;;;10.40;91.50;;;;;;6220614;23;20055;-78
2023/11/14 12:29:31;;;;;;;6.32;1.90;;;10.40;1.00;;;;;;6220510;23;20028;-82
2023/11/14 12:32:21;;;;;;;7.78;1.65;;;10.40;1.00;;;;;;6219848;23;20426;-82
2023/11/14 12:35:09;;;;;;;7.22;2.00;;;10.40;99.90;;;;;;6221007;23;20035;-82
2023/11/14 12:38:03;;;;;;;5.18;1.70;;;10.40;99.90;;;;;;6221818;23;20039;-80
2023/11/14 12:40:52;;;;;;;8.82;2.25;;;10.40;99.90;;;;;;6240193;23;20418;-82
2023/11/14 12:43:40;;;;;;;9.85;1.80;;;10.40;99.90;;;;;;6242242;23;20034;-82
2023/11/14 12:46:32;;;;;;;5.00;1.65;;;10.40;99.90;;;;;;6242885;23;20024;-82
2023/11/14 12:49:22;;;;;;;7.47;1.90;;;10.40;16.30;;;;;;6222775;23;20182;-82
2023/11/14 12:52:10;;;;;;;9.07;1.50;;;10.30;1.00;;;;;;6222167;23;20028;-83
2023/11/14 12:55:01;;;;;;;4.78;1.80;;;10.30;1.00;;;;;;6243073;23;20035;-82
2023/11/14 12:57:52;;;;;;;6.68;1.88;;;10.30;1.00;;;;;;6242952;23;20029;-82
2023/11/14 13:00:39;;;;;;;9.88;2.22;;;10.30;1.00;;;;;;6247062;23;20020;-81
2023/11/14 13:03:29;;;;;;;5.00;1.55;;;10.30;1.00;;;;;;6245322;23;20441;-81
2023/11/14 13:06:18;;;;;;;4.03;1.63;;;10.30;99.90;;;;;;6240762;23;20024;-81
2023/11/14 13:09:08;;;;;;;6.07;2.72;;;10.30;99.90;;;;;;6223090;23;20326;-82
2023/11/14 13:12:00;;;;;;;8.70;1.50;;;10.30;99.90;;;;;;6225321;23;20020;-82
2023/11/14 13:14:48;;;;;;;7.15;1.80;;;10.30;99.90;;;;;;6221576;23;20027;-82
2023/11/14 13:17:36;;;;;;;9.82;1.50;;;10.30;99.90;;;;;;6246403;22;20030;-82
2023/11/14 13:20:23;;;;;;;3.38;1.30;;;10.30;99.90;;;;;;6242239;23;20055;-82
2023/11/14 13:23:11;;;;;;;6.57;2.00;;;10.30;99.90;;;;;;6241316;23;20060;-82
2023/11/14 13:25:59;;;;;;;9.80;2.35;;;10.30;99.90;;;;;;6219850;23;20032;-82
2023/11/14 13:28:46;;;;;;;6.18;2.08;;;10.30;99.90;;;;;;6242813;23;20102;-82
2023/11/14 13:31:37;;;;;;;6.07;1.80;;;10.30;99.90;;;;;;6242131;23;20642;-80
2023/11/14 13:34:27;;;;;;;3.63;1.70;;;10.30;99.90;;;;;;6244433;23;20024;-80
2023/11/14 13:37:22;;;;;;;6.05;2.00;;;10.30;99.90;;;;;;6246868;23;20024;-81
2023/11/14 13:40:11;;;;;;;7.43;2.13;;;10.30;99.90;;;;;;6224071;23;20020;-82
2023/11/14 13:43:00;;;;;;;7.88;2.00;;;10.30;99.90;;;;;;6258771;23;20020;-82
2023/11/14 13:45:51;;;;;;;8.45;2.03;;;10.30;99.90;;;;;;6256663;23;20031;-80
2023/11/14 13:48:43;;;;;;;7.40;2.03;;;10.30;99.90;;;;;;6245835;23;20146;-82
2023/11/14 13:51:30;;;;;;;12.13;2.45;;;10.40;99.90;;;;;;6225277;23;20024;-83
2023/11/14 13:54:24;;;;;;;6.13;1.92;;;10.40;99.90;;;;;;6224402;23;20438;-82
2023/11/14 13:57:11;;;;;;;10.05;1.95;;;10.40;99.90;;;;;;6250866;22;20028;-79
2023/11/14 13:59:59;;;;;;;12.60;2.60;;;10.30;99.90;;;;;;6246341;23;20020;-82
2023/11/14 14:02:47;;;;;;;10.68;2.40;;;10.30;99.90;;;;;;6242776;23;20360;-83
2023/11/14 14:05:38;;;;;;;7.68;1.67;;;10.20;99.90;;;;;;6244171;23;20107;-82
2023/11/14 14:08:28;;;;;;;8.50;1.40;;;10.20;99.90;;;;;;6243790;23;20457;-83
2023/11/14 14:11:16;;;;;;;4.03;1.30;;;10.20;99.90;;;;;;6222757;23;20034;-83
2023/11/14 14:14:06;;;;;;;6.93;1.40;;;10.10;99.90;;;;;;6223500;23;20378;-82
2023/11/14 14:16:53;;;;;;;6.03;1.63;;;10.10;99.90;;;;;;6245606;23;20671;-82
2023/11/14 14:19:45;;;;;;;7.18;1.50;;;10.00;99.90;;;;;;6246347;23;20397;-83
2023/11/14 14:22:33;;;;;;;5.65;1.55;;;10.00;99.90;;;;;;6250578;23;20024;-82
2023/11/14 14:25:22;;;;;;;12.13;1.88;;;9.90;99.90;;;;;;6231748;23;20131;-82
2023/11/14 14:28:09;;;;;;;3.72;1.48;;;9.80;99.90;;;;;;6236672;23;20020;-79
2023/11/14 14:30:59;;;;;;;12.13;1.83;;;9.80;99.90;;;;;;6256830;23;20087;-82
2023/11/14 14:33:47;;;;;;;6.50;1.48;;;9.70;99.90;;;;;;6261777;23;20093;-84
2023/11/14 14:36:37;;;;;;;7.35;2.35;;;9.70;1.00;;;;;;6251042;23;20032;-79
2023/11/14 14:39:25;;;;;;;4.60;1.65;;;9.70;1.00;;;;;;6255443;23;20024;-79
2023/11/14 14:42:14;;;;;;;4.45;1.58;;;9.60;1.00;;;;;;6253069;23;20248;-82
2023/11/14 14:45:04;;;;;;;2.83;1.60;;;9.60;38.00;;;;;;6227574;23;20067;-84
2023/11/14 14:47:57;;;;;;;6.63;1.70;;;9.50;99.90;;;;;;6247924;23;20103;-83
2023/11/14 14:50:48;;;;;;;10.02;2.25;;;9.50;99.90;;;;;;6227108;23;20024;-82
2023/11/14 14:53:35;;;;;;;8.30;1.65;;;9.40;99.90;;;;;;6245923;23;20024;-82
2023/11/14 14:56:23;;;;;;;7.68;1.33;;;9.40;1.00;;;;;;6244089;23;20039;-81
2023/11/14 14:59:11;;;;;;;5.30;1.58;;;9.40;1.00;;;;;;6242505;23;20031;-80
2023/11/14 15:01:59;;;;;;;5.90;2.03;;;9.30;92.30;;;;;;6248801;23;20047;-83
2023/11/14 15:04:46;;;;;;;5.72;1.88;;;9.30;99.90;;;;;;6244555;23;20323;-84
2023/11/14 15:07:36;;;;;;;3.97;1.50;;;9.20;1.00;;;;;;6243618;23;20045;-83
2023/11/14 15:10:25;;;;;;;8.40;1.77;;;9.20;1.00;;;;;;6221179;23;20028;-85
2023/11/14 15:13:15;;;;;;;3.85;1.25;;;9.10;99.90;;;;;;6243178;23;20032;-83
2023/11/14 15:16:03;;;;;;;3.97;1.45;;;9.10;1.00;;;;;;6220625;23;20036;-83
2023/11/14 15:18:50;;;;;;;5.15;2.00;;;9.10;1.00;;;;;;6243602;23;20024;-84
2023/11/14 15:21:38;;;;;;;3.60;1.50;;;9.00;1.00;;;;;;6243321;23;20039;-82
2023/11/14 15:24:27;;;;;;;6.00;1.98;;;9.00;99.90;;;;;;6243378;23;20031;-80
2023/11/14 15:27:18;;;;;;;3.28;1.48;;;9.00;99.90;;;;;;6243218;23;20105;-83
2023/11/14 15:30:08;;;;;;;2.20;1.15;;;8.90;99.90;;;;;;6239928;23;20028;-83
2023/11/14 15:32:58;;;;;;;6.78;1.92;;;8.90;1.00;;;;;;6221139;23;20106;-82
2023/11/14 15:35:47;;;;;;;4.00;1.27;;;8.90;94.40;;;;;;6223057;23;20156;-82
2023/11/14 15:38:36;;;;;;;3.80;1.48;;;8.80;1.00;;;;;;6241066;23;20024;-80
2023/11/14 15:41:24;;;;;;;4.68;1.52;;;8.80;1.00;;;;;;6243130;23;20028;-84
2023/11/14 15:44:13;;;;;;;1.95;1.23;;;8.70;99.90;;;;;;6222860;23;20028;-83
2023/11/14 15:47:03;;;;;;;4.72;1.38;;;8.70;99.90;;;;;;6222126;23;20028;-85
2023/11/14 15:49:51;;;;;;;1.77;1.05;;;8.70;1.00;;;;;;6230892;23;20099;-82
2023/11/14 15:52:43;;;;;;;2.08;0.93;;;8.70;1.00;;;;;;6246817;23;20020;-82
2023/11/14 15:55:30;;;;;;;4.90;1.27;;;8.60;99.90;;;;;;6220931;23;20039;-84
2023/11/14 15:58:20;;;;;;;5.20;1.10;;;8.60;99.90;;;;;;6238151;23;20024;-82
2023/11/14 16:01:08;;;;;;;2.10;1.30;;;8.60;99.90;;;;;;6243089;23;20102;-84
2023/11/14 16:03:56;;;;;;;1.10;0.90;;;8.50;99.90;;;;;;6242091;23;20024;-84
2023/11/14 16:06:43;;;;;;;4.18;1.40;;;8.50;99.90;;;;;;6244082;23;20031;-78
2023/11/14 16:09:32;;;;;;;1.13;0.93;;;8.50;99.90;;;;;;6244885;23;20111;-78
2023/11/14 16:12:22;;;;;;;2.92;1.30;;;8.40;99.90;;;;;;6245083;23;20038;-85
2023/11/14 16:15:13;;;;;;;3.63;1.45;;;8.40;99.90;;;;;;6222451;23;20090;-86
2023/11/14 16:18:00;;;;;;;3.75;1.17;;;8.40;1.00;;;;;;6245269;23;20024;-85